Center Rutland, Vermont
Current Conditions -  °F | °C
As of 7:35 AM on Tuesday 27 Jan 2015 (Local Time) from KRUT Reporting Station
Overcast Overcast  
Wind Chill: -8°   Ceiling: 4000
Heat Index:   Visibility: 3mi
Dew Point:   Wind: 8mph
Humidity: 78%   Direction: 350°N
Pressure: 29.8"   Gusts: NA
Location:  43.6°N, 73.01°W
Report Text: KRUT 271235Z 35007KT 3SM BKN040 BKN050 OVC075 M15/M18 A2980 RMK AO1
Loading
Personal Weather Stations






























Interactive Weather Map New forecast layout! Learn more

10-Day Weather Forecast

Advertisements
Track Severe Weather on mobile